Time;durP1;ratioP1;P1;durP2;ratioP2;P2;SDS_P1;SDS_P2;PMS_P1;PMS_P2;Temp;Humidity;BMP_temperature;BMP_pressure;BME280_temperature;BME280_humidity;BME280_pressure;Samples;Min_cycle;Max_cycle;Signal;HPM_P1;HPM_P2
2021/11/20 00:07:17;;;;;;;;;;;11.80;62.10;;;;;;20999378;27;74611;-73
2021/11/20 00:17:19;;;;;;;;;;;11.80;61.90;;;;;;20980673;27;75871;-73
2021/11/20 00:27:28;;;;;;;;;;;11.90;61.60;;;;;;20981093;27;77144;-71
2021/11/20 00:37:30;;;;;;;;;;;11.90;61.70;;;;;;20997538;27;76808;-71
2021/11/20 00:47:31;;;;;;;;;;;11.90;61.70;;;;;;20997605;27;76744;-70
2021/11/20 00:57:33;;;;;;;;;;;12.00;61.40;;;;;;20995756;27;76958;-70
2021/11/20 01:07:34;;;;;;;;;;;12.00;60.90;;;;;;20978388;27;76828;-71
2021/11/20 01:17:36;;;;;;;;;;;11.90;61.20;;;;;;20995376;27;76925;-72
2021/11/20 01:27:37;;;;;;;;;;;11.90;61.50;;;;;;20994284;27;76063;-72
2021/11/20 01:37:40;;;;;;;;;;;11.90;61.40;;;;;;20975261;27;76894;-72
2021/11/20 01:47:41;;;;;;;;;;;12.00;61.10;;;;;;20976073;27;77225;-72
2021/11/20 01:57:51;;;;;;;;;;;12.10;61.10;;;;;;20992275;27;75721;-72
2021/11/20 02:07:57;;;;;;;;;;;12.10;60.80;;;;;;20985234;27;76770;-72
2021/11/20 02:17:59;;;;;;;;;;;12.20;60.90;;;;;;20962886;27;76921;-71
2021/11/20 02:28:01;;;;;;;;;;;12.20;60.90;;;;;;20988838;27;75710;-70
2021/11/20 02:38:05;;;;;;;;;;;12.20;61.00;;;;;;20989031;27;74993;-71
2021/11/20 02:48:08;;;;;;;;;;;12.20;61.00;;;;;;20989871;27;75789;-71
2021/11/20 02:58:09;;;;;;;;;;;12.10;61.30;;;;;;20989062;27;76516;-72
2021/11/20 03:08:11;;;;;;;;;;;12.10;61.40;;;;;;20970914;27;77269;-69
2021/11/20 03:18:17;;;;;;;;;;;12.10;61.40;;;;;;20993902;27;75549;-71
2021/11/20 03:28:25;;;;;;;;;;;12.00;61.50;;;;;;21001339;27;75759;-72
2021/11/20 03:38:29;;;;;;;;;;;12.10;61.80;;;;;;21000628;27;74836;-71
2021/11/20 03:48:32;;;;;;;;;;;12.10;61.90;;;;;;21001312;27;76867;-71
2021/11/20 03:58:34;;;;;;;;;;;12.00;61.70;;;;;;21000269;27;75596;-70
2021/11/20 04:08:36;;;;;;;;;;;11.90;61.90;;;;;;20982123;27;76504;-72
2021/11/20 04:18:42;;;;;;;;;;;11.90;62.50;;;;;;20981386;27;75879;-71
2021/11/20 04:28:45;;;;;;;;;;;12.00;62.30;;;;;;20979509;27;74703;-71
2021/11/20 04:38:48;;;;;;;;;;;12.00;62.10;;;;;;20997908;27;74660;-69
2021/11/20 04:48:53;;;;;;;;;;;12.10;62.10;;;;;;20980156;27;75686;-70
2021/11/20 04:58:55;;;;;;;;;;;12.20;62.20;;;;;;20978683;27;76892;-73
2021/11/20 05:09:00;;;;;;;;;;;12.10;62.50;;;;;;20996255;27;77018;-72
2021/11/20 05:19:01;;;;;;;;;;;12.20;62.40;;;;;;20995910;27;76705;-71
2021/11/20 05:29:11;;;;;;;;;;;12.20;62.20;;;;;;20992827;27;75479;-71
2021/11/20 05:39:13;;;;;;;;;;;12.20;62.00;;;;;;20993124;27;75972;-71
2021/11/20 05:49:16;;;;;;;;;;;12.20;62.10;;;;;;20993944;27;76880;-69
2021/11/20 05:59:19;;;;;;;;;;;12.20;62.20;;;;;;20991085;27;75975;-70
2021/11/20 06:09:21;;;;;;;;;;;12.10;63.10;;;;;;20962248;27;75417;-70
2021/11/20 06:19:22;;;;;;;;;;;12.10;63.90;;;;;;20982282;27;78579;-70
2021/11/20 06:29:27;;;;;;;;;;;12.10;63.90;;;;;;20964942;27;76822;-68
2021/11/20 06:39:29;;;;;;;;;;;12.10;63.60;;;;;;20986668;27;75916;-71
2021/11/20 06:49:32;;;;;;;;;;;12.00;63.70;;;;;;20989760;27;75728;-68
2021/11/20 07:09:42;;;;;;;;;;;12.00;63.70;;;;;;21002810;27;75669;-68
2021/11/20 07:19:44;;;;;;;;;;;12.00;63.70;;;;;;21003156;27;77006;-67
2021/11/20 07:29:46;;;;;;;;;;;12.10;63.90;;;;;;20984343;27;74611;-68
2021/11/20 07:39:48;;;;;;;;;;;12.10;63.60;;;;;;20978001;27;76195;-67
2021/11/20 07:49:52;;;;;;;;;;;12.20;63.70;;;;;;20994476;27;75510;-64
2021/11/20 07:59:53;;;;;;;;;;;12.20;64.00;;;;;;20994418;27;75790;-66
2021/11/20 08:09:55;;;;;;;;;;;12.30;64.00;;;;;;20996600;27;75917;-66
2021/11/20 08:19:57;;;;;;;;;;;12.40;63.50;;;;;;20998053;27;75738;-66
2021/11/20 08:29:59;;;;;;;;;;;12.40;64.00;;;;;;20995479;27;75771;-64
2021/11/20 08:40:03;;;;;;;;;;;12.40;64.10;;;;;;20976088;27;75804;-65
2021/11/20 08:50:08;;;;;;;;;;;12.40;64.40;;;;;;20988960;27;75676;-63
2021/11/20 09:00:15;;;;;;;;;;;12.50;64.20;;;;;;20996500;27;75836;-65
2021/11/20 09:10:18;;;;;;;;;;;12.70;64.20;;;;;;20996868;27;75708;-65
2021/11/20 09:20:20;;;;;;;;;;;12.90;63.70;;;;;;20994907;27;75730;-65
2021/11/20 09:30:32;;;;;;;;;;;12.80;63.90;;;;;;20994687;27;76860;-61
2021/11/20 09:40:36;;;;;;;;;;;12.90;63.90;;;;;;20978431;27;76679;-62
2021/11/20 09:50:46;;;;;;;;;;;13.00;63.50;;;;;;20991477;27;75738;-63
2021/11/20 10:01:01;;;;;;;;;;;13.10;63.50;;;;;;20987765;27;76731;-66
2021/11/20 10:11:09;;;;;;;;;;;13.10;63.20;;;;;;20986764;27;75693;-66
2021/11/20 10:21:18;;;;;;;;;;;13.40;62.90;;;;;;20990508;27;76984;-61
2021/11/20 10:31:23;;;;;;;;;;;13.60;62.20;;;;;;20989747;27;74989;-62
2021/11/20 10:41:45;;;;;;;;;;;13.80;61.90;;;;;;20990358;27;76791;-64
2021/11/20 10:52:03;;;;;;;;;;;13.90;61.60;;;;;;20990035;27;76900;-66
2021/11/20 11:02:22;;;;;;;;;;;14.40;60.90;;;;;;20990403;27;76840;-61
2021/11/20 11:12:26;;;;;;;;;;;14.20;61.10;;;;;;20987647;27;75564;-65
2021/11/20 11:22:31;;;;;;;;;;;14.30;61.00;;;;;;20988779;27;75670;-63
2021/11/20 11:32:36;;;;;;;;;;;14.10;61.90;;;;;;20988609;27;77342;-66
2021/11/20 11:42:47;;;;;;;;;;;14.50;61.60;;;;;;20998609;27;75573;-64
2021/11/20 11:52:52;;;;;;;;;;;15.20;60.00;;;;;;20999440;27;75559;-64
2021/11/20 12:02:55;;;;;;;;;;;15.60;59.10;;;;;;20982576;27;76407;-65
2021/11/20 12:13:16;;;;;;;;;;;16.30;57.10;;;;;;20976795;27;75710;-65
2021/11/20 12:23:36;;;;;;;;;;;16.50;56.20;;;;;;20980277;27;76812;-62
2021/11/20 12:33:57;;;;;;;;;;;16.40;57.10;;;;;;20990071;27;75605;-64
2021/11/20 12:44:07;;;;;;;;;;;16.50;56.10;;;;;;20977087;27;77383;-67
2021/11/20 12:54:38;;;;;;;;;;;16.10;57.30;;;;;;20991807;27;75721;-65
2021/11/20 13:04:49;;;;;;;;;;;16.00;57.60;;;;;;20923891;27;76727;-66
2021/11/20 13:14:58;;;;;;;;;;;15.70;58.30;;;;;;20978443;27;76633;-65
2021/11/20 13:25:01;;;;;;;;;;;15.60;58.80;;;;;;20995193;27;75693;-66
2021/11/20 13:35:03;;;;;;;;;;;15.40;59.10;;;;;;20994925;27;75590;-63
2021/11/20 13:45:08;;;;;;;;;;;15.40;59.40;;;;;;20995457;27;75761;-65
2021/11/20 13:55:12;;;;;;;;;;;15.50;59.30;;;;;;20976238;27;76757;-63
2021/11/20 14:05:15;;;;;;;;;;;15.20;60.00;;;;;;20994395;27;76883;-63
2021/11/20 14:15:17;;;;;;;;;;;15.40;60.00;;;;;;20994379;27;75956;-65
2021/11/20 14:25:21;;;;;;;;;;;15.40;59.80;;;;;;20993084;27;74870;-66
2021/11/20 14:35:23;;;;;;;;;;;15.50;59.20;;;;;;20992046;27;75859;-66
2021/11/20 14:45:25;;;;;;;;;;;15.60;58.40;;;;;;20991320;27;75733;-63
2021/11/20 14:55:31;;;;;;;;;;;15.60;58.60;;;;;;20973341;27;75601;-63
2021/11/20 15:05:34;;;;;;;;;;;15.40;59.10;;;;;;20972841;27;76743;-66
2021/11/20 15:15:36;;;;;;;;;;;15.20;59.80;;;;;;20996969;27;76072;-66
2021/11/20 15:25:37;;;;;;;;;;;14.90;60.10;;;;;;20986275;27;75613;-64
2021/11/20 15:35:40;;;;;;;;;;;14.90;60.40;;;;;;21003260;27;75552;-66
2021/11/20 15:45:42;;;;;;;;;;;14.70;60.90;;;;;;21001608;27;75813;-65
2021/11/20 15:55:44;;;;;;;;;;;14.40;61.60;;;;;;20983972;27;74818;-64
2021/11/20 16:05:45;;;;;;;;;;;14.40;62.10;;;;;;20983841;27;76813;-63
2021/11/20 16:15:48;;;;;;;;;;;14.30;62.50;;;;;;20984418;27;75364;-66
2021/11/20 16:25:50;;;;;;;;;;;14.20;62.70;;;;;;20979474;27;76601;-68
2021/11/20 16:35:52;;;;;;;;;;;14.10;63.40;;;;;;20996887;27;76896;-64
2021/11/20 16:45:53;;;;;;;;;;;13.90;63.80;;;;;;20991083;27;76844;-63
2021/11/20 16:55:55;;;;;;;;;;;13.80;64.30;;;;;;20978369;27;76618;-74
2021/11/20 17:05:57;;;;;;;;;;;13.70;64.70;;;;;;20972748;27;75255;-73
2021/11/20 17:15:58;;;;;;;;;;;13.60;65.00;;;;;;20974560;27;77139;-75
2021/11/20 17:26:00;;;;;;;;;;;13.60;65.20;;;;;;20974476;27;76938;-74
2021/11/20 17:36:02;;;;;;;;;;;13.50;64.90;;;;;;20910905;27;76981;-75
2021/11/20 17:46:04;;;;;;;;;;;13.50;65.00;;;;;;20874715;28;75962;-75
2021/11/20 17:56:06;;;;;;;;;;;13.60;65.30;;;;;;20878125;28;78172;-76
2021/11/20 18:06:08;;;;;;;;;;;13.50;65.50;;;;;;20875917;27;76794;-75
2021/11/20 18:16:10;;;;;;;;;;;13.50;65.70;;;;;;20870916;28;76058;-75
2021/11/20 18:26:14;;;;;;;;;;;13.40;65.80;;;;;;20888187;27;76860;-78
2021/11/20 18:36:17;;;;;;;;;;;13.40;66.20;;;;;;20937746;27;76272;-74
2021/11/20 18:46:22;;;;;;;;;;;13.40;66.20;;;;;;20977763;27;76881;-74
2021/11/20 18:56:27;;;;;;;;;;;13.40;66.30;;;;;;20959761;27;74996;-76
2021/11/20 19:06:50;;;;;;;;;;;13.40;66.60;;;;;;20959752;27;75485;-75
2021/11/20 19:17:17;;;;;;;;;;;13.40;66.50;;;;;;20968992;27;75913;-77
2021/11/20 19:27:58;;;;;;;;;;;13.30;66.60;;;;;;20964361;27;75849;-76
2021/11/20 19:38:39;;;;;;;;;;;13.30;67.00;;;;;;20877265;28;75282;-77
2021/11/20 19:48:51;;;;;;;;;;;13.30;67.20;;;;;;20902865;27;78433;-77
2021/11/20 19:58:53;;;;;;;;;;;13.30;67.40;;;;;;20888043;27;76966;-74
2021/11/20 20:08:55;;;;;;;;;;;13.20;67.70;;;;;;20895572;28;76963;-74
2021/11/20 20:18:57;;;;;;;;;;;13.30;67.80;;;;;;20908916;28;76293;-74
2021/11/20 20:29:01;;;;;;;;;;;13.20;68.00;;;;;;20916096;27;75731;-76
2021/11/20 20:39:07;;;;;;;;;;;13.20;68.10;;;;;;20989546;27;76982;-76
2021/11/20 20:49:09;;;;;;;;;;;13.20;68.20;;;;;;20984809;27;74867;-75
2021/11/20 20:59:13;;;;;;;;;;;13.20;68.30;;;;;;20979426;27;75588;-75
2021/11/20 21:09:21;;;;;;;;;;;13.20;68.40;;;;;;20980086;27;74918;-75
2021/11/20 21:29:49;;;;;;;;;;;13.20;68.20;;;;;;20981073;27;76280;-76
2021/11/20 21:39:52;;;;;;;;;;;13.20;68.30;;;;;;20976135;27;76969;-75
2021/11/20 21:49:56;;;;;;;;;;;13.20;68.50;;;;;;20993924;27;95447;-76
2021/11/20 21:59:59;;;;;;;;;;;13.10;70.70;;;;;;20995172;27;76875;-74
2021/11/20 22:10:00;;;;;;;;;;;12.90;71.80;;;;;;20992446;27;77060;-74
2021/11/20 22:20:04;;;;;;;;;;;12.80;72.80;;;;;;20973854;27;76080;-74
2021/11/20 22:30:06;;;;;;;;;;;12.80;73.70;;;;;;20972992;27;74652;-78
2021/11/20 22:40:08;;;;;;;;;;;12.80;74.20;;;;;;20966955;27;76657;-75
2021/11/20 22:50:11;;;;;;;;;;;12.80;73.10;;;;;;20984576;27;76869;-76
2021/11/20 23:00:19;;;;;;;;;;;12.70;73.20;;;;;;20981196;27;75452;-77
2021/11/20 23:10:21;;;;;;;;;;;12.70;73.30;;;;;;20968487;27;77134;-78
2021/11/20 23:20:37;;;;;;;;;;;12.70;73.50;;;;;;20969988;27;75446;-75
2021/11/20 23:30:39;;;;;;;;;;;12.50;73.90;;;;;;20969582;27;76231;-77
2021/11/20 23:40:41;;;;;;;;;;;12.60;74.30;;;;;;20999453;27;76817;-77
2021/11/20 23:50:46;;;;;;;;;;;12.60;74.40;;;;;;20983414;27;77166;-77
